Somerset, Texas
Current Conditions -  °F | °C
As of 9:58 AM on Saturday 20 Dec 2014 (Local Time) from KSKF Reporting Station
Overcast Overcast  
Wind Chill: 10°   Ceiling: 1700
Heat Index: 10°   Visibility: 10mi
Dew Point:   Wind: 8mph
Humidity: 76%   Direction: 30°NNE
Pressure: 30.23"   Gusts: NA
Location:  29.23°N, 98.66°W
Report Text: KSKF 201558Z AUTO 03007KT 10SM OVC017 10/06 A3023 RMK AO2 SLP237 T01000060 $
Loading
Personal Weather Stations






























Interactive Weather Map New forecast layout! Learn more

10-Day Weather Forecast

Advertisements
Track Severe Weather on mobile